Language selection

Features

My Weather Profile Weather Topics  | 

Haro Strait: Past 24 Hour Conditions

 

La Perouse Bank - 46206

09:00 AM PST 06 March 2021Buoy position: 48.83N 126.0W
Disclaimer

This table is a summary of hourly weather conditions for the past 24 hours.
Please note that these observations might not always be representative of weather conditions over their associated marine area.

Date / Time
(PST)
Wind(knots) Wave height(m) Wave period(s) Pressure(kPa) Air tempC) Water tempC)
06 March 2021
9:00 SSE 6 gust 8 3.1 11.0 101.4 8 8
8:00 calm 3.4 11.0 101.3 8 8
7:00 W 10 gust 16 3.4 10.0 101.2 8 8
6:00 WNW 10 gust 12 3.7 12.0 101.2 7 8
5:00 WNW 13 gust 17 3.6 12.0 101.1 7 8
4:00 WNW 12 gust 16 3.9 12.0 101.0 7 8
3:00 WNW 10 gust 13 4.0 12.0 100.9 7 8
2:00 W 10 gust 13 3.9 12.0 100.9 8 8
1:00 WSW 10 gust 13 4.5 12.0 100.8 7 8
0:00 SSW 22 gust 25 4.7 12.0 100.7 7 8
05 March 2021
23:00 S 17 gust 23 5.0 12.0 100.8 7 8
22:00 SSW 19 gust 27 5.2 11.0 100.7 7 8
21:00 SSW 23 gust 29 4.9 11.0 100.7 7 8
20:00 S 29 gust 37 4.7 9.0 100.7 8 8
19:00 S 23 gust 31 4.8 12.0 100.8 9 8
18:00 S 23 gust 29 4.5 10.0 100.8 8 8
17:00 S 23 gust 31 4.6 11.0 100.8 9 8
16:00 S 23 gust 29 4.9 12.0 100.8 9 8
15:00 S 23 gust 29 4.7 14.0 100.8 9 8
14:00 S 25 gust 31 4.4 14.0 100.7 9 8
13:00 S 25 gust 35 4.3 14.0 100.7 9 8
12:00 S 23 gust 31 4.3 11.0 100.7 9 8
11:00 S 25 gust 33 4.3 12.0 100.7 9 8
10:00 S 25 gust 33 5.0 12.0 100.6 9 8
9:00 S 19 gust 25 5.5 11.0 100.5 9 8

Zoom-in to make a selection

Map of Pacific - Georgia Basin marine weather areas Sentry Shoal - 46131 Halibut Bank - 46146 La Perouse Bank - 46206 Georgia Strait - 46303 English Bay - 46304 Discovery Island Esquimalt Harbour Kelp Reefs Malahat Race Rocks Lightstation Saturna Island Sheringham Point University of Victoria Victoria Gonzales Victoria Int'l Airport Ballenas Islands Campbell River Airport Comox Airport Entrance Island Fanny Island Nanaimo Airport Sisters Islets Estevan Point Port Alberni Tofino Airport Grief Point Howe Sound - Pam Rocks Powell River Airport Sechelt Squamish Airport Point Atkinson Sand Heads Lightstation Tsawwassen Ferry Terminal Vancouver Int'l Airport Vancouver Harbour West Vancouver
Legend:
buoy Buoy
land station Land Station

Pacific - Georgia Basin Area

Another Region

What we are doing

Features

Need to travel Alberta Highway 93?

Go prepared with Highway 93 forecasts. Highway regions are available in the Alberta text forecast bulletin between Lake Louise and Jasper. (Photo by: Natalie Anderson)

Date modified: